Time;durP1;ratioP1;P1;durP2;ratioP2;P2;SDS_P1;SDS_P2;PMS_P1;PMS_P2;Temp;Humidity;BMP_temperature;BMP_pressure;BME280_temperature;BME280_humidity;BME280_pressure;Samples;Min_cycle;Max_cycle;Signal;HPM_P1;HPM_P2
2022/04/10 00:01:34;;;;;;;14.83;4.60;;;;;;;4.91;74.44;100775.97;5018075;28;20171;-76
2022/04/10 00:03:59;;;;;;;12.10;4.83;;;;;;;4.61;75.06;100772.41;5018867;28;20238;-75
2022/04/10 00:06:26;;;;;;;5.80;3.90;;;;;;;4.70;75.13;100783.06;5019396;28;20402;-75
2022/04/10 00:08:52;;;;;;;8.90;4.17;;;;;;;5.34;73.89;100782.53;5018949;28;20225;-76
2022/04/10 00:11:17;;;;;;;11.40;4.40;;;;;;;5.18;73.91;100778.59;5018720;28;20413;-75
2022/04/10 00:13:43;;;;;;;7.70;4.20;;;;;;;5.03;73.83;100779.88;5020058;28;20163;-77
2022/04/10 00:16:08;;;;;;;6.47;4.00;;;;;;;4.66;74.98;100778.63;5019710;28;20408;-75
2022/04/10 00:18:37;;;;;;;8.73;4.20;;;;;;;4.82;74.60;100781.72;5018791;28;20206;-75
2022/04/10 00:21:03;;;;;;;8.60;4.20;;;;;;;5.28;73.62;100779.78;5018850;28;20229;-74
2022/04/10 00:23:29;;;;;;;12.50;4.50;;;;;;;4.45;75.73;100781.34;5018370;28;20449;-76
2022/04/10 00:25:54;;;;;;;9.90;4.60;;;;;;;4.65;74.81;100774.25;5018408;28;20414;-74
2022/04/10 00:28:20;;;;;;;8.23;4.03;;;;;;;5.10;74.36;100780.03;5019119;28;20159;-75
2022/04/10 00:30:45;;;;;;;7.40;4.53;;;;;;;4.91;74.29;100791.47;5018363;28;20800;-76
2022/04/10 00:33:11;;;;;;;5.67;3.77;;;;;;;4.89;74.36;100783.69;5018452;28;20166;-74
2022/04/10 00:35:36;;;;;;;9.20;3.90;;;;;;;4.99;74.73;100784.88;5018893;28;20183;-74
2022/04/10 00:38:01;;;;;;;10.63;4.90;;;;;;;5.08;74.22;100779.13;5017568;28;20550;-75
2022/04/10 00:40:26;;;;;;;8.77;4.07;;;;;;;4.72;73.99;100776.25;5018183;28;20178;-75
2022/04/10 00:42:52;;;;;;;4.00;3.20;;;;;;;4.64;74.70;100779.38;5018570;28;20170;-75
2022/04/10 00:45:18;;;;;;;9.23;4.10;;;;;;;5.09;74.33;100778.28;5018401;28;20210;-74
2022/04/10 00:47:45;;;;;;;6.43;4.00;;;;;;;4.84;74.15;100785.22;5018707;28;20529;-73
2022/04/10 00:50:13;;;;;;;8.17;3.80;;;;;;;4.36;74.68;100793.94;5018546;28;20878;-75
2022/04/10 00:52:41;;;;;;;7.63;3.80;;;;;;;4.46;75.77;100793.41;5018381;28;20751;-75
2022/04/10 00:55:07;;;;;;;8.10;3.90;;;;;;;4.29;75.86;100794.50;5018455;28;20521;-75
2022/04/10 00:57:33;;;;;;;6.97;3.90;;;;;;;4.78;75.37;100793.66;5018064;28;20414;-77
2022/04/10 00:59:58;;;;;;;7.50;4.23;;;;;;;4.39;74.74;100797.47;5018000;28;20647;-74
2022/04/10 01:02:23;;;;;;;10.53;4.20;;;;;;;4.57;75.10;100798.94;5020007;28;20163;-76
2022/04/10 01:04:48;;;;;;;8.90;3.90;;;;;;;4.80;75.17;100798.88;5023044;28;20159;-75
2022/04/10 01:07:15;;;;;;;4.90;3.67;;;;;;;4.74;74.75;100799.53;5018411;28;20186;-75
2022/04/10 01:09:41;;;;;;;6.87;3.77;;;;;;;4.54;76.18;100794.56;5017450;28;20181;-76
2022/04/10 01:12:10;;;;;;;10.10;4.10;;;;;;;4.80;75.79;100783.38;5018276;28;20394;-76
2022/04/10 01:14:36;;;;;;;8.23;4.13;;;;;;;4.31;76.72;100801.47;5021576;28;20177;-76
2022/04/10 01:17:01;;;;;;;5.40;4.40;;;;;;;4.27;76.69;100801.34;5021596;28;20505;-76
2022/04/10 01:19:27;;;;;;;7.33;4.50;;;;;;;4.20;77.42;100807.97;5022047;28;20464;-77
2022/04/10 01:21:55;;;;;;;5.57;3.77;;;;;;;4.26;77.99;100808.19;5020914;28;20560;-76
2022/04/10 01:24:21;;;;;;;8.87;4.20;;;;;;;3.89;78.59;100804.25;5020922;28;20596;-76
2022/04/10 01:26:47;;;;;;;9.30;4.53;;;;;;;3.90;78.41;100800.84;5022085;28;20477;-77
2022/04/10 01:29:13;;;;;;;9.80;4.47;;;;;;;4.15;78.47;100806.91;5021887;28;20171;-78
2022/04/10 01:31:40;;;;;;;6.17;3.67;;;;;;;4.08;78.70;100813.53;5020889;28;20418;-76
2022/04/10 01:34:08;;;;;;;6.10;3.60;;;;;;;4.10;78.65;100813.59;5021864;28;20406;-76
2022/04/10 01:36:34;;;;;;;5.50;3.70;;;;;;;4.62;77.60;100820.66;5021312;28;20424;-76
2022/04/10 01:39:02;;;;;;;7.30;3.70;;;;;;;4.40;76.88;100819.03;5020991;28;20493;-76
2022/04/10 01:41:28;;;;;;;6.83;4.00;;;;;;;4.57;76.29;100811.00;5021365;28;20445;-76
2022/04/10 01:43:55;;;;;;;5.63;3.87;;;;;;;4.39;76.36;100819.84;5021175;28;20497;-75
2022/04/10 01:46:22;;;;;;;6.20;3.70;;;;;;;4.25;76.25;100823.59;5021107;28;20428;-76
2022/04/10 01:48:48;;;;;;;5.73;3.60;;;;;;;4.26;76.77;100828.81;5021603;28;20429;-76
2022/04/10 01:51:14;;;;;;;5.97;3.20;;;;;;;4.48;76.07;100833.06;5020842;28;20465;-75
2022/04/10 01:53:39;;;;;;;5.27;3.60;;;;;;;4.30;77.16;100827.25;5020383;28;20209;-77
2022/04/10 01:56:06;;;;;;;5.97;3.40;;;;;;;4.30;76.70;100835.88;5021300;28;20402;-77
2022/04/10 01:58:33;;;;;;;4.30;3.83;;;;;;;4.30;76.95;100843.63;5020825;28;20336;-77
2022/04/10 02:01:01;;;;;;;6.23;3.63;;;;;;;4.27;77.04;100834.88;5020754;28;20425;-76
2022/04/10 02:03:26;;;;;;;6.93;3.90;;;;;;;4.10;78.08;100844.56;5020091;28;20487;-77
2022/04/10 02:05:52;;;;;;;5.93;4.80;;;;;;;4.04;77.73;100840.91;5020691;28;20414;-77
2022/04/10 02:08:17;;;;;;;7.07;4.43;;;;;;;4.07;78.04;100839.28;5020916;28;20473;-76
2022/04/10 02:10:42;;;;;;;6.43;4.50;;;;;;;3.86;78.13;100847.97;5020554;28;20442;-77
2022/04/10 02:13:07;;;;;;;8.67;4.63;;;;;;;4.41;77.43;100848.28;5020617;28;20185;-77
2022/04/10 02:15:36;;;;;;;6.03;4.63;;;;;;;3.84;78.17;100853.09;5020951;28;20166;-76
2022/04/10 02:18:02;;;;;;;8.47;4.83;;;;;;;4.20;78.66;100859.56;5020531;28;20282;-76
2022/04/10 02:20:28;;;;;;;7.40;4.83;;;;;;;3.93;77.85;100883.50;5020446;28;20670;-77
2022/04/10 02:22:53;;;;;;;7.87;4.57;;;;;;;3.86;78.35;100884.09;5020768;28;20177;-76
2022/04/10 02:25:19;;;;;;;6.13;4.10;;;;;;;3.42;79.25;100867.72;5019934;28;20242;-76
2022/04/10 02:27:44;;;;;;;8.20;5.23;;;;;;;3.65;78.95;100866.06;5019603;28;20700;-77
2022/04/10 02:30:10;;;;;;;7.93;5.50;;;;;;;4.04;77.94;100871.88;5020246;28;20178;-77
2022/04/10 02:32:35;;;;;;;12.20;5.90;;;;;;;3.90;77.07;100867.00;5020209;28;20552;-75
2022/04/10 02:35:01;;;;;;;8.83;5.33;;;;;;;3.45;78.64;100878.13;5020071;28;20429;-76
2022/04/10 02:37:29;;;;;;;10.53;5.93;;;;;;;3.54;79.03;100879.41;5020577;28;20191;-74
2022/04/10 02:39:54;;;;;;;6.83;5.60;;;;;;;4.10;77.27;100875.53;5020526;28;20173;-76
2022/04/10 02:42:19;;;;;;;10.57;5.80;;;;;;;4.13;77.00;100879.09;5020327;28;20430;-74
2022/04/10 02:44:45;;;;;;;8.50;5.50;;;;;;;3.67;77.26;100869.59;5020459;28;20167;-76
2022/04/10 02:47:10;;;;;;;8.20;5.20;;;;;;;3.56;78.25;100881.16;5019501;28;20182;-76
2022/04/10 02:49:35;;;;;;;9.17;5.47;;;;;;;3.96;77.75;100881.03;5019834;28;20442;-77
2022/04/10 02:52:01;;;;;;;7.63;5.97;;;;;;;3.76;77.53;100881.94;5020150;28;20546;-75
2022/04/10 02:54:26;;;;;;;9.40;4.60;;;;;;;4.20;76.30;100881.09;5019726;28;20167;-75
2022/04/10 02:56:51;;;;;;;9.63;5.10;;;;;;;3.96;76.59;100882.75;5019666;28;20175;-75
2022/04/10 02:59:17;;;;;;;5.30;4.80;;;;;;;3.80;76.83;100871.84;5020094;28;20190;-75
2022/04/10 03:01:42;;;;;;;9.87;6.53;;;;;;;4.35;75.44;100875.63;5019369;28;20256;-76
2022/04/10 03:04:07;;;;;;;6.70;5.13;;;;;;;4.76;74.41;100877.94;5019237;28;20301;-75
2022/04/10 03:06:33;;;;;;;11.73;5.63;;;;;;;4.31;74.83;100870.31;5020326;28;20171;-76
2022/04/10 03:08:58;;;;;;;7.73;4.67;;;;;;;4.18;75.91;100869.84;5019591;28;20175;-76
2022/04/10 03:11:25;;;;;;;7.13;4.40;;;;;;;4.22;77.21;100875.97;5019085;28;20253;-77
2022/04/10 03:13:50;;;;;;;6.70;4.60;;;;;;;4.33;77.89;100860.91;5020097;28;20544;-76
2022/04/10 03:16:15;;;;;;;10.93;4.80;;;;;;;4.17;77.84;100864.63;5019678;28;20480;-77
2022/04/10 03:18:40;;;;;;;6.50;4.00;;;;;;;3.94;78.60;100885.25;5019488;28;20213;-77
2022/04/10 03:21:06;;;;;;;5.00;4.00;;;;;;;4.09;78.81;100878.94;5019720;28;20173;-77
2022/04/10 03:23:31;;;;;;;8.07;4.57;;;;;;;4.51;77.76;100881.38;5019625;28;20176;-77
2022/04/10 03:25:56;;;;;;;5.30;4.20;;;;;;;4.14;77.65;100878.28;5019557;28;20170;-77
2022/04/10 03:28:25;;;;;;;7.10;4.40;;;;;;;3.36;78.92;100868.34;5019880;28;20178;-77
2022/04/10 03:30:50;;;;;;;8.80;4.13;;;;;;;3.90;79.68;100857.59;5019281;28;20175;-76
2022/04/10 03:33:15;;;;;;;6.80;4.40;;;;;;;3.72;78.94;100860.31;5019536;28;20500;-76
2022/04/10 03:35:41;;;;;;;6.77;4.30;;;;;;;4.15;78.13;100853.34;5019048;28;20553;-76
2022/04/10 03:38:06;;;;;;;5.60;4.10;;;;;;;4.12;78.25;100854.13;5018211;28;20293;-75
2022/04/10 03:40:31;;;;;;;6.93;4.33;;;;;;;3.56;78.76;100874.31;5019175;28;20175;-75
2022/04/10 03:42:57;;;;;;;4.90;3.70;;;;;;;3.56;79.98;100869.16;5018673;28;20194;-76
2022/04/10 03:45:22;;;;;;;5.53;4.93;;;;;;;3.82;81.04;100870.19;5018999;28;20236;-75
2022/04/10 03:47:47;;;;;;;5.33;4.37;;;;;;;3.62;80.63;100877.13;5018855;28;20448;-76
2022/04/10 03:50:13;;;;;;;10.47;5.40;;;;;;;3.71;79.40;100872.34;5019703;28;20187;-77
2022/04/10 03:52:38;;;;;;;7.10;4.43;;;;;;;3.57;80.42;100876.06;5018714;28;20203;-76
2022/04/10 03:55:04;;;;;;;4.17;3.60;;;;;;;3.47;81.23;100876.53;5024209;28;20171;-77
2022/04/10 03:57:31;;;;;;;5.43;4.60;;;;;;;3.81;79.95;100872.72;5020977;28;20237;-77
2022/04/10 03:59:56;;;;;;;7.00;4.83;;;;;;;3.94;78.76;100874.03;5019006;28;20429;-76
2022/04/10 04:02:24;;;;;;;7.97;4.53;;;;;;;3.45;79.95;100872.97;5018421;28;20413;-76
2022/04/10 04:04:50;;;;;;;6.33;4.20;;;;;;;3.79;80.26;100874.31;5019093;28;20175;-76
2022/04/10 04:07:16;;;;;;;9.10;5.00;;;;;;;3.82;79.70;100875.34;5018697;28;20508;-77
2022/04/10 04:09:42;;;;;;;5.90;4.83;;;;;;;3.95;78.91;100881.88;5018813;28;20734;-76
2022/04/10 04:12:08;;;;;;;9.27;4.57;;;;;;;3.71;79.82;100877.50;5018785;28;20155;-76
2022/04/10 04:14:33;;;;;;;11.17;5.43;;;;;;;3.80;79.90;100881.25;5018671;28;20171;-75
2022/04/10 04:16:59;;;;;;;7.80;5.40;;;;;;;3.90;79.29;100897.97;5018490;28;20475;-76
2022/04/10 04:19:24;;;;;;;11.83;5.53;;;;;;;3.67;79.84;100905.69;5018685;28;20194;-77
2022/04/10 04:21:49;;;;;;;9.20;4.83;;;;;;;3.91;79.79;100915.19;5018398;28;20229;-75
2022/04/10 04:24:15;;;;;;;9.87;5.27;;;;;;;3.85;79.90;100918.44;5018411;28;20174;-77
2022/04/10 04:26:40;;;;;;;6.47;4.90;;;;;;;3.80;80.80;100918.25;5018834;28;20209;-77
2022/04/10 04:29:05;;;;;;;12.27;6.07;;;;;;;3.88;80.08;100921.13;5018359;28;20183;-78
2022/04/10 04:31:31;;;;;;;9.17;5.30;;;;;;;3.88;80.50;100928.84;5018324;28;20166;-77
2022/04/10 04:33:56;;;;;;;12.43;5.60;;;;;;;3.97;80.11;100931.81;5019100;28;20197;-77
2022/04/10 04:36:21;;;;;;;7.90;5.30;;;;;;;4.11;79.62;100934.91;5018915;28;20221;-79
2022/04/10 04:38:46;;;;;;;14.73;6.17;;;;;;;3.90;79.76;100942.72;5018824;28;20349;-77
2022/04/10 04:41:12;;;;;;;10.00;4.87;;;;;;;3.99;79.61;100947.34;5018592;28;20443;-77
2022/04/10 04:43:37;;;;;;;12.50;5.30;;;;;;;3.99;78.45;100950.81;5018350;28;20174;-77
2022/04/10 04:46:02;;;;;;;8.93;5.83;;;;;;;3.90;79.53;100947.88;5018278;28;20205;-75
2022/04/10 04:48:28;;;;;;;9.83;5.27;;;;;;;3.61;80.50;100965.59;5022312;28;20163;-75
2022/04/10 04:50:53;;;;;;;10.90;5.17;;;;;;;3.90;79.97;100955.59;5021929;28;20435;-76
2022/04/10 04:53:18;;;;;;;12.60;5.10;;;;;;;4.02;79.97;100945.78;5022253;28;20205;-77
2022/04/10 04:55:44;;;;;;;11.00;5.10;;;;;;;3.92;79.72;100940.19;5022731;28;20637;-78
2022/04/10 04:58:09;;;;;;;10.00;5.30;;;;;;;3.84;80.15;100947.59;5021218;28;20195;-76
2022/04/10 05:00:34;;;;;;;10.63;5.43;;;;;;;3.68;80.48;100959.88;5021905;28;20173;-78
2022/04/10 05:02:59;;;;;;;11.03;5.03;;;;;;;3.55;81.43;100965.34;5020806;28;20214;-79
2022/04/10 05:05:25;;;;;;;8.13;5.40;;;;;;;3.78;80.48;100973.16;5022373;28;20190;-77
2022/04/10 05:07:50;;;;;;;12.80;5.27;;;;;;;3.96;80.00;100971.31;5022020;28;20541;-75
2022/04/10 05:10:16;;;;;;;10.60;4.80;;;;;;;4.53;78.73;100981.28;5021762;28;20545;-76
2022/04/10 05:12:41;;;;;;;11.00;5.20;;;;;;;4.03;78.83;100993.97;5021760;28;20171;-77
2022/04/10 05:15:08;;;;;;;12.00;6.10;;;;;;;4.28;78.86;100988.91;5022284;28;20493;-78
2022/04/10 05:17:34;;;;;;;10.40;5.20;;;;;;;4.31;78.56;100997.63;5021898;28;20167;-76
2022/04/10 05:19:59;;;;;;;11.40;4.77;;;;;;;4.58;77.41;100991.78;5021837;28;20422;-76
2022/04/10 05:22:24;;;;;;;10.90;4.83;;;;;;;4.52;77.57;100989.84;5022026;28;20409;-77
2022/04/10 05:24:50;;;;;;;8.80;4.70;;;;;;;4.78;76.72;100992.53;5020961;28;20179;-77
2022/04/10 05:27:16;;;;;;;12.43;5.20;;;;;;;4.48;76.98;100998.31;5021643;28;20193;-76
2022/04/10 05:29:41;;;;;;;10.40;4.60;;;;;;;4.46;77.57;100996.47;5022140;28;20254;-76
2022/04/10 05:32:07;;;;;;;13.93;5.63;;;;;;;4.66;77.04;101002.41;5021325;28;20556;-76
2022/04/10 05:34:32;;;;;;;10.00;5.00;;;;;;;4.71;77.53;100996.59;5021324;28;20226;-77
2022/04/10 05:36:57;;;;;;;10.57;5.00;;;;;;;4.73;76.48;100999.22;5021634;28;20166;-76
2022/04/10 05:39:23;;;;;;;11.20;5.23;;;;;;;4.92;76.15;100998.19;5021163;28;20203;-77
2022/04/10 05:41:49;;;;;;;9.93;5.20;;;;;;;4.71;76.34;101006.91;5020118;28;20170;-76
2022/04/10 05:44:14;;;;;;;14.00;6.37;;;;;;;6.40;72.42;101008.41;5021714;28;20178;-77
2022/04/10 05:46:39;;;;;;;13.10;5.43;;;;;;;7.38;68.05;101003.41;5021392;28;20249;-77
2022/04/10 05:49:06;;;;;;;8.70;4.53;;;;;;;8.60;64.38;101001.22;5021241;28;20198;-78
2022/04/10 05:51:31;;;;;;;6.93;4.80;;;;;;;9.23;61.92;100994.69;5021469;28;20163;-77
2022/04/10 05:53:57;;;;;;;6.83;4.70;;;;;;;7.25;65.96;101012.56;5021120;28;20681;-77
2022/04/10 05:56:22;;;;;;;12.93;4.43;;;;;;;5.93;69.94;101025.84;5020848;28;20173;-77
2022/04/10 05:58:47;;;;;;;10.37;4.50;;;;;;;5.60;72.54;101025.56;5020637;28;20213;-77
2022/04/10 06:01:13;;;;;;;7.40;5.20;;;;;;;4.87;74.00;101038.47;5020251;28;20206;-76
2022/04/10 06:03:38;;;;;;;12.03;4.60;;;;;;;5.30;73.22;101039.19;5020370;28;20226;-78
2022/04/10 06:06:04;;;;;;;10.30;4.83;;;;;;;5.59;73.36;101028.97;5021434;28;20174;-77
2022/04/10 06:08:29;;;;;;;6.57;4.57;;;;;;;5.56;72.92;101032.34;5021169;28;20528;-77
2022/04/10 06:10:55;;;;;;;10.97;4.33;;;;;;;5.23;72.24;101045.84;5020328;28;20193;-77
2022/04/10 06:13:21;;;;;;;6.67;4.03;;;;;;;5.92;71.26;101042.19;5021217;28;20167;-76
2022/04/10 06:15:46;;;;;;;8.03;4.10;;;;;;;8.45;65.00;101032.03;5020758;28;20178;-77
2022/04/10 06:18:11;;;;;;;5.33;4.03;;;;;;;9.56;59.70;101017.00;5021222;28;20213;-78
2022/04/10 06:20:36;;;;;;;6.73;3.50;;;;;;;8.43;60.81;101035.47;5011056;28;20175;-77
2022/04/10 06:23:02;;;;;;;7.00;3.80;;;;;;;7.95;61.88;101040.34;5020594;28;20229;-77
2022/04/10 06:25:27;;;;;;;9.00;4.10;;;;;;;7.06;65.08;101050.97;5019939;28;20171;-78
2022/04/10 06:27:52;;;;;;;7.70;4.17;;;;;;;7.04;67.06;101069.88;5021558;28;20163;-76
2022/04/10 06:30:18;;;;;;;6.00;4.17;;;;;;;5.69;69.89;101077.63;5020380;28;20179;-75
2022/04/10 06:32:43;;;;;;;7.83;5.00;;;;;;;5.84;71.04;101085.03;5019163;28;20170;-74
2022/04/10 06:35:08;;;;;;;9.63;4.43;;;;;;;5.62;71.93;101096.34;5018632;28;20176;-73
2022/04/10 06:37:35;;;;;;;7.50;4.10;;;;;;;4.94;73.53;101080.94;5019123;28;20182;-75
2022/04/10 06:40:00;;;;;;;5.60;4.10;;;;;;;5.46;72.43;101079.41;5019600;28;20183;-76
2022/04/10 06:42:26;;;;;;;5.57;4.20;;;;;;;5.43;72.48;101064.66;5019205;28;20475;-75
2022/04/10 06:44:51;;;;;;;8.10;4.40;;;;;;;7.37;69.39;101069.09;5019814;28;20179;-79
2022/04/10 06:47:16;;;;;;;5.50;3.80;;;;;;;6.35;69.26;101077.28;5021044;28;20214;-78
2022/04/10 06:49:42;;;;;;;9.13;4.50;;;;;;;6.17;71.78;101076.69;5023547;28;20199;-77
2022/04/10 06:52:07;;;;;;;8.30;4.40;;;;;;;6.38;71.12;101073.91;5019850;28;20190;-79
2022/04/10 06:54:33;;;;;;;9.60;5.03;;;;;;;6.54;70.35;101070.97;5020328;28;20190;-78
2022/04/10 06:56:58;;;;;;;9.20;5.17;;;;;;;6.43;70.57;101087.91;5020157;28;20183;-78
2022/04/10 06:59:23;;;;;;;9.27;5.00;;;;;;;5.51;72.92;101090.81;5019685;28;20290;-78
2022/04/10 07:01:49;;;;;;;13.00;5.13;;;;;;;6.26;72.90;101087.34;5020486;28;20446;-79
2022/04/10 07:04:14;;;;;;;7.87;5.07;;;;;;;6.59;71.65;101084.09;5020469;28;20222;-78
2022/04/10 07:06:39;;;;;;;7.20;4.70;;;;;;;6.56;71.26;101079.69;5003008;28;20171;-77
2022/04/10 07:09:05;;;;;;;9.60;4.43;;;;;;;7.75;68.11;101080.53;5020134;28;20174;-81
2022/04/10 07:11:31;;;;;;;7.27;4.80;;;;;;;9.82;60.88;101079.06;5020376;28;20181;-79
2022/04/10 07:13:57;;;;;;;13.13;4.73;;;;;;;10.59;57.68;101075.19;5020128;28;20421;-78
2022/04/10 07:16:22;;;;;;;8.60;4.50;;;;;;;11.27;55.56;101070.88;5019777;28;20476;-77
2022/04/10 07:18:47;;;;;;;8.03;3.87;;;;;;;13.04;50.29;101067.13;5019651;28;20213;-76
2022/04/10 07:21:13;;;;;;;11.10;4.33;;;;;;;11.28;53.42;101075.22;5019347;28;20277;-77
2022/04/10 07:23:45;;;;;;;8.13;4.33;;;;;;;11.06;54.71;101078.41;5020918;28;20198;-79
2022/04/10 07:26:12;;;;;;;10.80;4.23;;;;;;;13.01;50.94;101062.75;5019853;28;20225;-80
2022/04/10 07:28:38;;;;;;;6.80;4.20;;;;;;;12.06;51.10;101063.88;5019427;28;20902;-78
2022/04/10 07:31:05;;;;;;;7.90;3.90;;;;;;;12.71;49.96;101069.56;5020504;28;20468;-79
2022/04/10 07:33:30;;;;;;;10.60;4.40;;;;;;;11.98;51.04;101078.59;5019152;28;20494;-78
2022/04/10 07:35:56;;;;;;;6.20;3.80;;;;;;;13.32;49.02;101065.50;5018774;28;20521;-78
2022/04/10 07:38:22;;;;;;;5.67;3.80;;;;;;;11.86;51.32;101084.53;5019763;28;20205;-79
2022/04/10 07:40:47;;;;;;;7.00;4.00;;;;;;;10.57;55.19;101084.69;5019190;28;20219;-78
2022/04/10 07:43:13;;;;;;;7.77;3.93;;;;;;;11.05;55.06;101085.34;5019269;28;20426;-79
2022/04/10 07:48:22;;;;;;;5.43;3.70;;;;;;;13.71;48.29;101069.13;5018974;28;20186;-79
2022/04/10 07:50:47;;;;;;;8.73;3.93;;;;;;;12.19;49.71;101071.81;5018464;28;20467;-78
2022/04/10 07:53:13;;;;;;;7.27;3.77;;;;;;;12.94;47.62;101076.69;5019078;28;20555;-81
2022/04/10 07:55:38;;;;;;;7.30;3.97;;;;;;;13.12;48.26;101071.56;5018463;28;20171;-80
2022/04/10 07:58:04;;;;;;;6.57;4.03;;;;;;;14.43;45.76;101068.28;5019956;28;20517;-80
2022/04/10 08:00:32;;;;;;;6.17;3.97;;;;;;;14.01;45.74;101071.81;5018545;28;20318;-79
2022/04/10 08:02:58;;;;;;;7.80;3.57;;;;;;;12.63;48.32;101081.72;5018734;28;20233;-78
2022/04/10 08:05:23;;;;;;;11.40;4.23;;;;;;;10.58;53.53;101096.88;5019200;28;20417;-80
2022/04/10 08:07:49;;;;;;;11.47;4.90;;;;;;;10.61;55.51;101093.44;5019367;28;20690;-78
2022/04/10 08:10:14;;;;;;;12.57;5.13;;;;;;;9.48;58.31;101095.78;5018739;28;20180;-76
2022/04/10 08:12:44;;;;;;;7.43;4.33;;;;;;;8.05;62.49;101097.75;5018884;28;20213;-73
2022/04/10 08:15:10;;;;;;;10.70;3.77;;;;;;;7.82;63.53;101130.00;5018430;28;20175;-74
2022/04/10 08:17:35;;;;;;;8.30;4.20;;;;;;;7.27;66.86;101143.16;5018189;28;20693;-71
2022/04/10 08:20:04;;;;;;;13.80;6.90;;;;;;;7.16;68.38;101154.94;5018837;28;20460;-70
2022/04/10 08:22:30;;;;;;;5.00;3.77;;;;;;;6.73;69.60;101147.56;5017889;28;20207;-72
2022/04/10 08:25:03;;;;;;;4.20;3.80;;;;;;;8.58;66.88;101149.31;5018849;28;20417;-70
2022/04/10 08:27:29;;;;;;;6.43;3.90;;;;;;;10.68;59.18;101141.34;5027299;28;20802;-71
2022/04/10 08:29:55;;;;;;;6.83;3.50;;;;;;;10.65;56.99;101142.19;5026790;28;20781;-71
2022/04/10 08:32:20;;;;;;;4.33;3.43;;;;;;;12.10;53.29;101133.59;5038241;28;20474;-71
2022/04/10 08:34:45;;;;;;;5.70;3.73;;;;;;;10.58;55.20;101141.22;5024368;28;20563;-71
2022/04/10 08:37:11;;;;;;;7.67;3.80;;;;;;;12.29;52.44;101132.03;5018098;28;20187;-71
2022/04/10 08:39:36;;;;;;;5.43;3.60;;;;;;;11.03;52.84;101148.84;5018213;28;20229;-70
2022/04/10 08:42:04;;;;;;;5.63;3.63;;;;;;;12.67;50.28;101146.28;5020719;28;20208;-70
2022/04/10 08:44:29;;;;;;;8.40;3.90;;;;;;;13.20;48.91;101134.38;5037951;28;20170;-70
2022/04/10 08:46:56;;;;;;;5.83;3.63;;;;;;;13.99;47.41;101129.47;5037922;28;20392;-72
2022/04/10 08:49:24;;;;;;;5.67;3.97;;;;;;;14.89;44.34;101132.13;5037710;28;20170;-73
2022/04/10 08:51:52;;;;;;;4.53;3.10;;;;;;;14.86;43.47;101142.63;5037470;28;20417;-71
2022/04/10 08:54:18;;;;;;;6.73;3.83;;;;;;;14.37;41.83;101147.00;5037282;28;20686;-74
2022/04/10 08:56:44;;;;;;;6.13;3.67;;;;;;;14.76;41.37;101140.00;5037667;28;20432;-73
2022/04/10 08:59:09;;;;;;;4.10;3.40;;;;;;;15.01;42.02;101144.34;5034093;28;20461;-74
2022/04/10 09:01:35;;;;;;;5.53;3.90;;;;;;;16.06;39.17;101138.66;5018379;28;20552;-77
2022/04/10 09:04:00;;;;;;;5.07;3.73;;;;;;;13.95;42.22;101148.66;5017693;28;20227;-74
2022/04/10 09:06:26;;;;;;;5.93;4.00;;;;;;;15.28;40.36;101146.03;5017916;28;20175;-75
2022/04/10 09:08:51;;;;;;;5.63;3.77;;;;;;;14.79;39.55;101140.00;5018293;28;20163;-75
2022/04/10 09:11:16;;;;;;;5.50;3.90;;;;;;;15.15;39.47;101147.78;5017764;28;20481;-74
2022/04/10 09:13:46;;;;;;;5.07;3.60;;;;;;;14.36;40.32;101140.00;5017848;28;20164;-75
2022/04/10 09:16:15;;;;;;;7.33;4.13;;;;;;;14.70;41.25;101144.41;5018189;28;20168;-76
2022/04/10 09:18:58;;;;;;;5.53;3.60;;;;;;;15.36;39.94;101146.88;5017671;28;20476;-75
2022/04/10 09:21:28;;;;;;;5.90;3.67;;;;;;;14.39;40.56;101133.88;5017578;28;20437;-76
2022/04/10 09:23:55;;;;;;;6.00;3.70;;;;;;;16.02;38.88;101137.81;5017970;28;20468;-76
2022/04/10 09:26:21;;;;;;;4.00;3.50;;;;;;;16.12;38.04;101126.31;5017522;28;20426;-75
2022/04/10 09:28:48;;;;;;;8.17;3.40;;;;;;;16.48;38.18;101124.31;5017424;28;20402;-73
2022/04/10 09:31:28;;;;;;;9.70;4.07;;;;;;;16.67;35.81;101119.75;5033004;28;20476;-74
2022/04/10 09:33:54;;;;;;;7.03;3.60;;;;;;;16.68;35.96;101136.38;5025326;28;20830;-69
2022/04/10 09:36:35;;;;;;;5.03;3.40;;;;;;;14.71;38.89;101141.75;5041430;28;20431;-70
2022/04/10 09:39:01;;;;;;;7.60;3.90;;;;;;;15.05;37.94;101146.94;5040812;28;20743;-72
2022/04/10 09:41:27;;;;;;;6.23;3.40;;;;;;;13.94;40.83;101144.31;5039882;28;20643;-71
2022/04/10 09:43:52;;;;;;;5.57;3.50;;;;;;;13.59;42.57;101145.09;5040540;28;20531;-71
2022/04/10 09:46:18;;;;;;;11.53;3.70;;;;;;;12.04;45.17;101156.16;5041085;28;20178;-71
2022/04/10 09:48:46;;;;;;;5.97;3.40;;;;;;;12.38;45.75;101144.31;5023609;28;20248;-71
2022/04/10 09:51:12;;;;;;;5.60;3.50;;;;;;;14.41;42.27;101145.22;5040428;28;20424;-73
2022/04/10 09:53:41;;;;;;;4.50;3.30;;;;;;;15.65;39.50;101143.22;5040734;28;20409;-74
2022/04/10 09:56:07;;;;;;;3.73;2.87;;;;;;;15.55;38.31;101142.41;5039848;28;20220;-72
2022/04/10 09:58:34;;;;;;;5.70;3.40;;;;;;;14.01;41.30;101163.56;5040199;28;20696;-72
2022/04/10 10:01:02;;;;;;;4.57;3.50;;;;;;;14.07;41.19;101166.16;5022517;28;20887;-72
2022/04/10 10:03:29;;;;;;;6.63;3.43;;;;;;;13.29;42.66;101163.25;5019905;28;20776;-72
2022/04/10 10:05:56;;;;;;;6.13;2.97;;;;;;;12.34;45.04;101176.53;5020246;28;20447;-72
2022/04/10 10:08:23;;;;;;;4.30;3.33;;;;;;;13.06;43.58;101176.19;5020837;28;20414;-73
2022/04/10 10:10:49;;;;;;;6.73;3.63;;;;;;;12.06;45.00;101173.63;5020146;28;20412;-71
2022/04/10 10:13:15;;;;;;;5.30;3.30;;;;;;;12.20;44.81;101175.50;5019930;28;20385;-73
2022/04/10 10:15:41;;;;;;;4.50;3.27;;;;;;;12.82;43.76;101170.81;5020587;28;20441;-73
2022/04/10 10:18:08;;;;;;;6.33;3.53;;;;;;;13.88;41.96;101175.72;5019813;28;20468;-74
2022/04/10 10:20:34;;;;;;;5.50;3.53;;;;;;;14.48;40.54;101171.47;5020442;28;20481;-71
2022/04/10 10:23:01;;;;;;;5.77;3.17;;;;;;;14.24;40.32;101168.84;5031781;28;20403;-72
2022/04/10 10:26:12;;;;;;;5.23;3.60;;;;;;;14.97;40.22;101161.84;5024277;28;20430;-73
2022/04/10 10:28:46;;;;;;;5.47;3.63;;;;;;;13.92;41.21;101170.53;5018699;28;20499;-72
2022/04/10 10:31:28;;;;;;;4.93;3.20;;;;;;;13.62;42.07;101163.41;5017372;28;20415;-72
2022/04/10 10:34:04;;;;;;;4.27;3.30;;;;;;;13.35;42.61;101172.00;5008367;28;20501;-73
2022/04/10 10:36:31;;;;;;;6.23;3.87;;;;;;;13.79;40.14;101171.34;5017749;28;20460;-72
2022/04/10 10:38:57;;;;;;;5.27;3.40;;;;;;;13.61;40.09;101173.03;5017319;28;20865;-73
2022/04/10 10:41:22;;;;;;;5.80;3.37;;;;;;;12.05;43.30;101197.13;5015216;28;20644;-72
2022/04/10 10:43:48;;;;;;;5.10;3.60;;;;;;;12.73;43.06;101188.19;5016857;28;20424;-72
2022/04/10 10:46:24;;;;;;;5.27;3.27;;;;;;;13.12;40.65;101180.59;5018886;28;20301;-73
2022/04/10 10:49:19;;;;;;;6.87;3.30;;;;;;;13.92;37.34;101190.59;5019537;28;20468;-71
2022/04/10 10:51:49;;;;;;;5.03;3.77;;;;;;;14.31;37.38;101170.59;5019453;28;20418;-72
2022/04/10 10:54:18;;;;;;;5.33;3.40;;;;;;;12.84;37.95;101184.75;5019486;28;20820;-71
2022/04/10 10:56:46;;;;;;;6.10;3.77;;;;;;;14.41;36.19;101181.94;5019342;28;20399;-67
2022/04/10 10:59:29;;;;;;;6.13;3.50;;;;;;;14.18;35.79;101195.03;5018987;28;20851;-70
2022/04/10 11:02:10;;;;;;;4.67;3.20;;;;;;;13.79;36.30;101200.19;5019041;28;20835;-69
2022/04/10 11:04:35;;;;;;;7.43;3.70;;;;;;;13.29;37.31;101201.66;5019143;28;20468;-69
2022/04/10 11:07:19;;;;;;;5.63;3.70;;;;;;;12.58;39.62;101208.97;5019179;28;20479;-70
2022/04/10 11:10:03;;;;;;;5.40;3.40;;;;;;;12.58;39.82;101212.50;5019212;28;20437;-71
2022/04/10 11:12:49;;;;;;;5.67;3.63;;;;;;;13.18;38.43;101208.53;5034729;28;20652;-71
2022/04/10 11:15:23;;;;;;;5.17;3.60;;;;;;;13.24;39.41;101200.75;5019199;28;20400;-71
2022/04/10 11:17:49;;;;;;;5.80;3.57;;;;;;;13.48;42.96;101195.66;5019003;28;20654;-64
2022/04/10 11:20:17;;;;;;;10.73;3.70;;;;;;;12.85;39.31;101207.47;5018974;28;20451;-72
2022/04/10 11:22:52;;;;;;;8.73;3.67;;;;;;;12.34;40.53;101200.06;5018791;28;20388;-72
2022/04/10 11:25:41;;;;;;;8.70;3.97;;;;;;;11.12;43.35;101222.00;5018148;28;20759;-71
2022/04/10 11:28:07;;;;;;;6.70;3.90;;;;;;;10.06;50.86;101252.28;5018721;28;20425;-75
2022/04/10 11:30:40;;;;;;;9.00;3.83;;;;;;;7.72;59.54;101256.03;5018689;28;20406;-73